Time;durP1;ratioP1;P1;durP2;ratioP2;P2;SDS_P1;SDS_P2;PMS_P1;PMS_P2;Temp;Humidity;BMP_temperature;BMP_pressure;BME280_temperature;BME280_humidity;BME280_pressure;Samples;Min_cycle;Max_cycle;Signal;HPM_P1;HPM_P2
2024/01/28 00:01:01;;;;;;;9.20;4.07;;;;;;;;;;5100931;28;20235;-30
2024/01/28 00:03:31;;;;;;;7.33;4.10;;;;;;;;;;5087283;28;20241;-33
2024/01/28 00:05:58;;;;;;;5.90;3.73;;;;;;;;;;5082805;28;20249;-32
2024/01/28 00:08:25;;;;;;;7.60;4.17;;;;;;;;;;5093237;28;20223;-30
2024/01/28 00:10:53;;;;;;;7.83;4.70;;;;;;;;;;5080188;28;20701;-34
2024/01/28 00:13:24;;;;;;;9.60;4.57;;;;;;;;;;5089078;28;20207;-29
2024/01/28 00:15:52;;;;;;;7.63;4.03;;;;;;;;;;5099297;28;20207;-33
2024/01/28 00:18:19;;;;;;;7.60;4.23;;;;;;;;;;5098548;28;20264;-29
2024/01/28 00:20:48;;;;;;;5.37;3.60;;;;;;;;;;5083888;28;20232;-32
2024/01/28 00:23:15;;;;;;;6.10;4.27;;;;;;;;;;5101079;28;20220;-33
2024/01/28 00:25:42;;;;;;;8.30;3.97;;;;;;;;;;5080166;28;20209;-36
2024/01/28 00:28:09;;;;;;;5.17;3.40;;;;;;;;;;5097757;28;20311;-32
2024/01/28 00:30:36;;;;;;;6.43;4.23;;;;;;;;;;5096665;28;20259;-31
2024/01/28 00:33:03;;;;;;;7.83;5.03;;;;;;;;;;5088945;28;20311;-34
2024/01/28 00:35:30;;;;;;;6.50;3.57;;;;;;;;;;5083315;28;20215;-35
2024/01/28 00:37:59;;;;;;;7.93;4.63;;;;;;;;;;5087878;28;20226;-29
2024/01/28 00:40:26;;;;;;;6.57;4.67;;;;;;;;;;5083257;28;20229;-33
2024/01/28 00:42:53;;;;;;;6.67;3.83;;;;;;;;;;5095597;28;20235;-31
2024/01/28 00:45:20;;;;;;;8.63;4.73;;;;;;;;;;5093970;28;20705;-32
2024/01/28 00:47:48;;;;;;;5.27;3.90;;;;;;;;;;5092071;28;20215;-36
2024/01/28 00:50:15;;;;;;;6.30;4.23;;;;;;;;;;5085943;28;20524;-32
2024/01/28 00:52:43;;;;;;;7.70;4.10;;;;;;;;;;5107498;28;20204;-34
2024/01/28 00:55:12;;;;;;;6.47;4.47;;;;;;;;;;5082662;28;20250;-31
2024/01/28 00:57:39;;;;;;;8.93;4.00;;;;;;;;;;5080352;28;20196;-35
2024/01/28 01:00:07;;;;;;;5.37;3.63;;;;;;;;;;5099636;28;20237;-32
2024/01/28 01:02:34;;;;;;;7.60;4.17;;;;;;;;;;5099297;28;20208;-33
2024/01/28 01:05:01;;;;;;;6.63;3.87;;;;;;;;;;5083558;28;20239;-33
2024/01/28 01:07:28;;;;;;;5.77;3.93;;;;;;;;;;5091938;28;20204;-36
2024/01/28 01:09:55;;;;;;;6.63;3.90;;;;;;;;;;5091308;28;20227;-34
2024/01/28 01:12:24;;;;;;;6.93;4.53;;;;;;;;;;5097521;28;20234;-31
2024/01/28 01:14:51;;;;;;;8.40;4.30;;;;;;;;;;5109708;28;20199;-34
2024/01/28 01:17:18;;;;;;;7.60;4.30;;;;;;;;;;5091768;28;20734;-33
2024/01/28 01:19:45;;;;;;;6.20;4.23;;;;;;;;;;5087389;28;20223;-32
2024/01/28 01:22:12;;;;;;;7.43;4.40;;;;;;;;;;5094202;28;20276;-33
2024/01/28 01:24:40;;;;;;;5.93;4.23;;;;;;;;;;5089084;28;20228;-32
2024/01/28 01:27:07;;;;;;;8.00;4.30;;;;;;;;;;5086740;28;20210;-31
2024/01/28 01:29:36;;;;;;;6.67;4.33;;;;;;;;;;5104208;28;20231;-33
2024/01/28 01:32:03;;;;;;;6.37;3.73;;;;;;;;;;5099271;28;20223;-35
2024/01/28 01:34:30;;;;;;;5.30;3.80;;;;;;;;;;5079172;28;20301;-36
2024/01/28 01:36:57;;;;;;;5.87;3.93;;;;;;;;;;5081738;28;20220;-34
2024/01/28 01:39:25;;;;;;;9.53;4.10;;;;;;;;;;5090812;28;20205;-32
2024/01/28 01:41:52;;;;;;;5.87;3.63;;;;;;;;;;5073991;28;20228;-36
2024/01/28 01:44:20;;;;;;;6.30;3.93;;;;;;;;;;5110795;28;20223;-30
2024/01/28 01:46:48;;;;;;;10.07;5.17;;;;;;;;;;5094397;28;20327;-33
2024/01/28 01:49:16;;;;;;;6.47;4.20;;;;;;;;;;5095289;28;20265;-29
2024/01/28 01:51:44;;;;;;;12.03;4.67;;;;;;;;;;5110926;28;20208;-33
2024/01/28 01:54:11;;;;;;;10.07;5.30;;;;;;;;;;5084400;28;20306;-29
2024/01/28 01:56:39;;;;;;;6.97;4.70;;;;;;;;;;5079202;28;20215;-33
2024/01/28 01:59:07;;;;;;;8.73;4.97;;;;;;;;;;5097204;28;20204;-32
2024/01/28 02:01:35;;;;;;;6.30;5.00;;;;;;;;;;5082159;28;20576;-30
2024/01/28 02:04:04;;;;;;;7.93;4.80;;;;;;;;;;5094505;28;20222;-35
2024/01/28 02:06:31;;;;;;;6.63;4.60;;;;;;;;;;5101207;28;20212;-34
2024/01/28 02:08:58;;;;;;;8.87;5.40;;;;;;;;;;5102300;28;20208;-36
2024/01/28 02:11:25;;;;;;;5.83;4.57;;;;;;;;;;5087425;28;20232;-32
2024/01/28 02:13:52;;;;;;;6.33;4.47;;;;;;;;;;5098875;28;20217;-36
2024/01/28 02:16:19;;;;;;;6.37;4.53;;;;;;;;;;5099224;28;20213;-32
2024/01/28 02:18:46;;;;;;;5.40;4.43;;;;;;;;;;5086107;28;20299;-37
2024/01/28 02:21:15;;;;;;;7.90;4.87;;;;;;;;;;5087996;28;20228;-33
2024/01/28 02:23:43;;;;;;;7.93;4.90;;;;;;;;;;5098009;28;20220;-38
2024/01/28 02:26:11;;;;;;;10.00;5.60;;;;;;;;;;5082344;28;20212;-35
2024/01/28 02:28:38;;;;;;;10.73;5.30;;;;;;;;;;5093009;28;20299;-29
2024/01/28 02:31:05;;;;;;;7.53;4.43;;;;;;;;;;5109097;28;20230;-32
2024/01/28 02:33:32;;;;;;;7.40;4.60;;;;;;;;;;5098589;28;20210;-31
2024/01/28 02:36:00;;;;;;;7.90;5.43;;;;;;;;;;5084486;28;20212;-32
2024/01/28 02:38:27;;;;;;;9.33;5.10;;;;;;;;;;5097631;28;20214;-32
2024/01/28 02:40:55;;;;;;;6.80;4.27;;;;;;;;;;5080373;28;20231;-35
2024/01/28 02:43:22;;;;;;;9.13;5.27;;;;;;;;;;5095311;28;20193;-35
2024/01/28 02:45:50;;;;;;;8.83;4.90;;;;;;;;;;5097710;28;20235;-30
2024/01/28 02:48:17;;;;;;;6.80;5.33;;;;;;;;;;5079670;28;20216;-36
2024/01/28 02:50:44;;;;;;;8.67;5.00;;;;;;;;;;5089580;28;20225;-31
2024/01/28 02:53:11;;;;;;;6.80;4.57;;;;;;;;;;5105804;28;20215;-33
2024/01/28 02:55:38;;;;;;;10.07;5.37;;;;;;;;;;5074398;28;20214;-31
2024/01/28 02:58:07;;;;;;;7.47;4.93;;;;;;;;;;5099202;28;20207;-30
2024/01/28 03:00:35;;;;;;;9.00;4.60;;;;;;;;;;5102646;28;20236;-33
2024/01/28 03:03:03;;;;;;;7.93;4.90;;;;;;;;;;5104407;28;20581;-31
2024/01/28 03:05:30;;;;;;;12.30;5.40;;;;;;;;;;5088074;28;20265;-32
2024/01/28 03:07:57;;;;;;;5.87;4.20;;;;;;;;;;5097466;28;20232;-33
2024/01/28 03:10:24;;;;;;;6.67;5.10;;;;;;;;;;5084651;28;20224;-31
2024/01/28 03:12:51;;;;;;;8.00;4.13;;;;;;;;;;5097355;28;20211;-29
2024/01/28 03:15:20;;;;;;;6.60;3.37;;;;;;;;;;5097464;28;20204;-33
2024/01/28 03:17:47;;;;;;;7.87;4.07;;;;;;;;;;5082872;28;20212;-34
2024/01/28 03:20:16;;;;;;;5.53;4.30;;;;;;;;;;5089012;28;20224;-33
2024/01/28 03:22:43;;;;;;;6.13;3.90;;;;;;;;;;5097270;28;20226;-32
2024/01/28 03:25:12;;;;;;;6.00;3.73;;;;;;;;;;5083404;28;20224;-33
2024/01/28 03:27:39;;;;;;;6.20;4.60;;;;;;;;;;5088246;28;20304;-31
2024/01/28 03:30:08;;;;;;;6.33;4.00;;;;;;;;;;5097827;28;20224;-32
2024/01/28 03:32:37;;;;;;;10.43;4.10;;;;;;;;;;5097805;28;20213;-34
2024/01/28 03:35:04;;;;;;;4.33;3.77;;;;;;;;;;5084566;28;20190;-35
2024/01/28 03:37:31;;;;;;;6.30;3.30;;;;;;;;;;5095675;28;20205;-31
2024/01/28 03:39:58;;;;;;;5.73;3.47;;;;;;;;;;5077833;28;20225;-35
2024/01/28 03:42:26;;;;;;;5.43;3.50;;;;;;;;;;5100329;28;20200;-29
2024/01/28 03:44:53;;;;;;;3.67;3.23;;;;;;;;;;5100063;28;20247;-31
2024/01/28 03:47:20;;;;;;;6.10;3.77;;;;;;;;;;5088999;28;20215;-29
2024/01/28 03:49:49;;;;;;;3.90;3.10;;;;;;;;;;5085036;28;20220;-32
2024/01/28 03:52:17;;;;;;;4.80;3.17;;;;;;;;;;5100239;28;20290;-33
2024/01/28 03:54:44;;;;;;;4.00;3.50;;;;;;;;;;5088043;28;20203;-32
2024/01/28 03:57:11;;;;;;;4.90;3.50;;;;;;;;;;5075273;28;20225;-32
2024/01/28 03:59:39;;;;;;;6.43;3.80;;;;;;;;;;5093821;28;20442;-32
2024/01/28 04:02:07;;;;;;;6.87;3.93;;;;;;;;;;5096717;28;20203;-33
2024/01/28 04:04:34;;;;;;;5.03;3.53;;;;;;;;;;5084826;28;20252;-32
2024/01/28 04:07:02;;;;;;;4.57;3.27;;;;;;;;;;5086684;28;20240;-34
2024/01/28 04:09:30;;;;;;;7.20;3.83;;;;;;;;;;5081676;28;20587;-36
2024/01/28 04:11:57;;;;;;;5.97;3.63;;;;;;;;;;5085253;28;20215;-33
2024/01/28 04:14:24;;;;;;;3.67;3.30;;;;;;;;;;5094958;28;20216;-33
2024/01/28 04:16:52;;;;;;;5.57;3.63;;;;;;;;;;5097824;28;20211;-33
2024/01/28 04:19:19;;;;;;;4.10;3.60;;;;;;;;;;5080765;28;20208;-32
2024/01/28 04:21:46;;;;;;;6.23;3.80;;;;;;;;;;5088659;28;20566;-31
2024/01/28 04:24:14;;;;;;;6.40;4.37;;;;;;;;;;5081957;28;20219;-33
2024/01/28 04:26:41;;;;;;;3.60;3.30;;;;;;;;;;5088103;28;20215;-32
2024/01/28 04:29:09;;;;;;;4.37;3.37;;;;;;;;;;5089985;28;20211;-29
2024/01/28 04:31:36;;;;;;;5.40;3.50;;;;;;;;;;5095747;28;20216;-33
2024/01/28 04:34:06;;;;;;;5.73;3.57;;;;;;;;;;5090667;28;20200;-32
2024/01/28 04:36:33;;;;;;;5.73;3.77;;;;;;;;;;5093038;28;20203;-36
2024/01/28 04:39:00;;;;;;;5.67;3.60;;;;;;;;;;5087642;28;20197;-35
2024/01/28 04:41:29;;;;;;;4.33;3.50;;;;;;;;;;5083628;28;20221;-30
2024/01/28 04:43:56;;;;;;;3.97;3.57;;;;;;;;;;5093425;28;20214;-35
2024/01/28 04:46:26;;;;;;;11.23;4.17;;;;;;;;;;5092334;28;20230;-34
2024/01/28 04:49:23;;;;;;;6.03;3.27;;;;;;;;;;5100438;28;20279;-32
2024/01/28 04:51:50;;;;;;;4.43;3.37;;;;;;;;;;5091732;28;20257;-33
2024/01/28 04:54:19;;;;;;;6.80;3.63;;;;;;;;;;5097451;28;20213;-33
2024/01/28 04:57:01;;;;;;;4.83;3.40;;;;;;;;;;5090294;28;20204;-31
2024/01/28 04:59:28;;;;;;;4.50;3.50;;;;;;;;;;5086534;28;20325;-31
2024/01/28 05:01:55;;;;;;;6.40;3.83;;;;;;;;;;5092139;28;20213;-36
2024/01/28 05:04:22;;;;;;;6.73;3.97;;;;;;;;;;5093868;28;20215;-35
2024/01/28 05:06:50;;;;;;;6.30;4.00;;;;;;;;;;5097333;28;20245;-33
2024/01/28 05:09:17;;;;;;;8.00;4.00;;;;;;;;;;5098927;28;20208;-30
2024/01/28 05:11:44;;;;;;;4.20;3.53;;;;;;;;;;5094004;28;20260;-30
2024/01/28 05:14:14;;;;;;;6.50;3.50;;;;;;;;;;5093100;28;20213;-30
2024/01/28 05:16:47;;;;;;;5.90;3.70;;;;;;;;;;5099757;28;20565;-30
2024/01/28 05:19:14;;;;;;;4.80;3.70;;;;;;;;;;5092921;28;20200;-33
2024/01/28 05:21:41;;;;;;;6.33;4.20;;;;;;;;;;5096486;28;20413;-29
2024/01/28 05:24:08;;;;;;;6.23;3.40;;;;;;;;;;5098089;28;20213;-33
2024/01/28 05:26:37;;;;;;;4.93;3.80;;;;;;;;;;5087605;28;20221;-34
2024/01/28 05:29:05;;;;;;;6.90;3.90;;;;;;;;;;5099492;28;20757;-33
2024/01/28 05:31:34;;;;;;;6.33;3.70;;;;;;;;;;5111684;28;20288;-34
2024/01/28 05:34:01;;;;;;;4.73;3.77;;;;;;;;;;5099255;28;20350;-37
2024/01/28 05:36:29;;;;;;;6.50;4.00;;;;;;;;;;5090263;28;20211;-32
2024/01/28 05:38:56;;;;;;;5.10;4.03;;;;;;;;;;5090908;28;20200;-29
2024/01/28 05:41:23;;;;;;;5.93;4.03;;;;;;;;;;5096627;28;20230;-34
2024/01/28 05:43:50;;;;;;;9.00;4.03;;;;;;;;;;5096090;28;20204;-31
2024/01/28 05:46:17;;;;;;;7.10;4.10;;;;;;;;;;5107496;28;20234;-32
2024/01/28 05:48:46;;;;;;;6.57;4.13;;;;;;;;;;5092457;28;20208;-32
2024/01/28 05:51:13;;;;;;;8.07;4.70;;;;;;;;;;5079289;28;20236;-34
2024/01/28 05:53:40;;;;;;;7.73;3.97;;;;;;;;;;5096815;28;20197;-32
2024/01/28 05:56:08;;;;;;;6.80;4.07;;;;;;;;;;5090732;28;20304;-29
2024/01/28 05:58:35;;;;;;;8.50;4.50;;;;;;;;;;5099144;28;20222;-32
2024/01/28 06:01:06;;;;;;;5.13;4.00;;;;;;;;;;5099113;28;20238;-32
2024/01/28 06:03:34;;;;;;;5.43;3.93;;;;;;;;;;5095001;28;20291;-32
2024/01/28 06:06:02;;;;;;;7.67;4.17;;;;;;;;;;5086783;28;20217;-34
2024/01/28 06:08:29;;;;;;;5.97;4.30;;;;;;;;;;5086570;28;20220;-34
2024/01/28 06:10:57;;;;;;;9.40;4.90;;;;;;;;;;5089304;28;20220;-30
2024/01/28 06:13:24;;;;;;;6.30;4.43;;;;;;;;;;5093693;28;20262;-36
2024/01/28 06:15:52;;;;;;;4.63;4.20;;;;;;;;;;5101965;28;20212;-38
2024/01/28 06:18:20;;;;;;;7.97;4.67;;;;;;;;;;5101844;28;20209;-34
2024/01/28 06:20:47;;;;;;;9.63;4.50;;;;;;;;;;5088496;28;20236;-32
2024/01/28 06:23:16;;;;;;;6.27;3.90;;;;;;;;;;5099203;28;20219;-34
2024/01/28 06:25:43;;;;;;;7.07;4.10;;;;;;;;;;5077667;28;20226;-32
2024/01/28 06:28:10;;;;;;;6.27;4.20;;;;;;;;;;5106203;28;20242;-34
2024/01/28 06:30:37;;;;;;;7.83;3.70;;;;;;;;;;5101620;28;20227;-35
2024/01/28 06:33:05;;;;;;;6.47;3.90;;;;;;;;;;5093312;28;20210;-33
2024/01/28 06:35:32;;;;;;;4.87;4.03;;;;;;;;;;5095157;28;20203;-34
2024/01/28 06:37:59;;;;;;;6.10;4.47;;;;;;;;;;5107872;28;20205;-34
2024/01/28 06:40:27;;;;;;;7.97;4.40;;;;;;;;;;5081797;28;20395;-34
2024/01/28 06:42:54;;;;;;;6.87;4.20;;;;;;;;;;5087700;28;20208;-32
2024/01/28 06:45:22;;;;;;;8.73;4.10;;;;;;;;;;5108401;28;20224;-34
2024/01/28 06:47:50;;;;;;;7.43;4.33;;;;;;;;;;5075572;28;20212;-34
2024/01/28 06:50:17;;;;;;;6.77;4.47;;;;;;;;;;5088442;28;20223;-35
2024/01/28 06:52:44;;;;;;;4.90;3.90;;;;;;;;;;5088600;28;20239;-34
2024/01/28 06:55:12;;;;;;;6.50;4.57;;;;;;;;;;5074942;28;20219;-35
2024/01/28 06:57:40;;;;;;;6.17;4.60;;;;;;;;;;5088565;28;20200;-35
2024/01/28 07:00:10;;;;;;;5.97;3.80;;;;;;;;;;5083628;28;20239;-34
2024/01/28 07:02:37;;;;;;;7.97;4.13;;;;;;;;;;5086987;28;20671;-35
2024/01/28 07:05:05;;;;;;;4.73;4.17;;;;;;;;;;5079431;28;20201;-32
2024/01/28 07:07:32;;;;;;;6.10;4.17;;;;;;;;;;5087901;28;20192;-35
2024/01/28 07:09:59;;;;;;;7.20;4.30;;;;;;;;;;5082328;28;20228;-31
2024/01/28 07:12:27;;;;;;;5.07;4.17;;;;;;;;;;5099316;28;20303;-38
2024/01/28 07:14:55;;;;;;;6.90;3.73;;;;;;;;;;5096314;28;20201;-32
2024/01/28 07:17:22;;;;;;;5.77;3.93;;;;;;;;;;5087259;28;20346;-38
2024/01/28 07:19:49;;;;;;;5.03;3.93;;;;;;;;;;5081159;28;20233;-32
2024/01/28 07:22:16;;;;;;;7.23;4.13;;;;;;;;;;5095162;28;20239;-36
2024/01/28 07:24:44;;;;;;;4.97;3.97;;;;;;;;;;5076729;28;20205;-31
2024/01/28 07:27:11;;;;;;;5.63;4.53;;;;;;;;;;5081613;28;20335;-33
2024/01/28 07:29:39;;;;;;;6.50;4.70;;;;;;;;;;5078093;28;20316;-37
2024/01/28 07:32:07;;;;;;;9.70;4.80;;;;;;;;;;5076323;28;20208;-34
2024/01/28 07:34:35;;;;;;;8.67;4.80;;;;;;;;;;5083876;28;20238;-30
2024/01/28 07:37:02;;;;;;;8.77;4.97;;;;;;;;;;5105934;28;20206;-32
2024/01/28 07:39:30;;;;;;;8.60;5.23;;;;;;;;;;5087800;28;20837;-35
2024/01/28 07:41:58;;;;;;;8.67;4.80;;;;;;;;;;5095085;28;20205;-33
2024/01/28 07:44:25;;;;;;;6.87;4.50;;;;;;;;;;5104647;28;20200;-35
2024/01/28 07:46:53;;;;;;;8.10;4.57;;;;;;;;;;5108051;28;20231;-36
2024/01/28 07:49:22;;;;;;;5.30;4.00;;;;;;;;;;5090015;28;20205;-32
2024/01/28 07:51:56;;;;;;;9.80;4.57;;;;;;;;;;5099176;28;20205;-35
2024/01/28 07:54:24;;;;;;;7.57;4.90;;;;;;;;;;5085169;28;20205;-31
2024/01/28 07:56:52;;;;;;;7.37;5.03;;;;;;;;;;5082839;28;20287;-32
2024/01/28 07:59:19;;;;;;;8.23;4.40;;;;;;;;;;5090922;28;20216;-31
2024/01/28 08:01:47;;;;;;;7.80;4.87;;;;;;;;;;5084238;28;20228;-33
2024/01/28 08:04:14;;;;;;;7.23;4.10;;;;;;;;;;5079174;28;20216;-34
2024/01/28 08:06:43;;;;;;;6.20;4.17;;;;;;;;;;5091928;28;20227;-36
2024/01/28 08:09:10;;;;;;;5.57;4.07;;;;;;;;;;5085724;28;20205;-32
2024/01/28 08:11:38;;;;;;;8.63;4.90;;;;;;;;;;5087657;28;20202;-35
2024/01/28 08:14:05;;;;;;;8.67;5.30;;;;;;;;;;5102492;28;20200;-35
2024/01/28 08:16:32;;;;;;;6.73;5.07;;;;;;;;;;5101125;28;20302;-32
2024/01/28 08:18:59;;;;;;;9.17;5.77;;;;;;;;;;5095775;28;20200;-29
2024/01/28 08:21:29;;;;;;;5.77;4.83;;;;;;;;;;5090750;28;20224;-31
2024/01/28 08:23:58;;;;;;;5.57;5.03;;;;;;;;;;5101049;28;20192;-35
2024/01/28 08:26:25;;;;;;;8.47;5.07;;;;;;;;;;5092114;28;20234;-28
2024/01/28 08:28:54;;;;;;;8.30;5.00;;;;;;;;;;5101063;28;20309;-36
2024/01/28 08:31:22;;;;;;;8.63;5.80;;;;;;;;;;5099582;28;20223;-37
2024/01/28 08:33:49;;;;;;;9.87;6.17;;;;;;;;;;5101851;28;20204;-31
2024/01/28 08:36:16;;;;;;;8.00;5.70;;;;;;;;;;5090095;28;20202;-34
2024/01/28 08:38:43;;;;;;;11.17;5.93;;;;;;;;;;5094503;28;20193;-39
2024/01/28 08:41:12;;;;;;;9.50;6.30;;;;;;;;;;5090655;28;20228;-35
2024/01/28 08:43:40;;;;;;;8.43;5.73;;;;;;;;;;5095115;28;20262;-34
2024/01/28 08:46:07;;;;;;;7.60;6.73;;;;;;;;;;5099106;28;20221;-30
2024/01/28 08:48:34;;;;;;;13.37;8.30;;;;;;;;;;5089794;28;20323;-29
2024/01/28 08:51:01;;;;;;;14.70;9.30;;;;;;;;;;5103113;28;20216;-33
2024/01/28 08:53:29;;;;;;;13.17;7.70;;;;;;;;;;5098815;28;20291;-32
2024/01/28 08:55:56;;;;;;;10.33;6.83;;;;;;;;;;5081712;28;20193;-32
2024/01/28 08:58:24;;;;;;;8.73;6.17;;;;;;;;;;5091868;28;20236;-36
2024/01/28 09:00:52;;;;;;;10.47;6.87;;;;;;;;;;5093708;28;20234;-36
2024/01/28 09:03:19;;;;;;;8.20;6.80;;;;;;;;;;5081992;28;20209;-33
2024/01/28 09:05:46;;;;;;;12.33;7.17;;;;;;;;;;5096077;28;20215;-35
2024/01/28 09:08:13;;;;;;;10.57;7.60;;;;;;;;;;5090528;28;20211;-35
2024/01/28 09:10:40;;;;;;;10.37;7.03;;;;;;;;;;5083371;28;20228;-37
2024/01/28 09:13:07;;;;;;;9.53;6.70;;;;;;;;;;5096071;28;20286;-36
2024/01/28 09:15:36;;;;;;;8.77;6.70;;;;;;;;;;5092482;28;20204;-31
2024/01/28 09:18:03;;;;;;;9.13;6.43;;;;;;;;;;5092624;28;20284;-34
2024/01/28 09:20:30;;;;;;;12.57;8.00;;;;;;;;;;5091116;28;20235;-29
2024/01/28 09:22:57;;;;;;;11.53;7.73;;;;;;;;;;5109080;28;20203;-36
2024/01/28 09:25:26;;;;;;;9.93;7.23;;;;;;;;;;5080592;28;20210;-32
2024/01/28 09:27:55;;;;;;;12.13;7.63;;;;;;;;;;5091110;28;20260;-33
2024/01/28 09:30:22;;;;;;;10.77;8.03;;;;;;;;;;5096014;28;20220;-33
2024/01/28 09:32:50;;;;;;;9.53;7.10;;;;;;;;;;5103241;28;20200;-35
2024/01/28 09:35:18;;;;;;;10.07;7.93;;;;;;;;;;5091977;28;20212;-36
2024/01/28 09:37:46;;;;;;;9.67;7.50;;;;;;;;;;5099028;28;20234;-36
2024/01/28 09:40:14;;;;;;;9.07;6.80;;;;;;;;;;5100301;28;20241;-35
2024/01/28 09:45:45;;;;;;;12.87;8.47;;;;;;;;;;5112793;28;20176;-34
2024/01/28 09:48:14;;;;;;;11.70;8.00;;;;;;;;;;5089406;28;20221;-32
2024/01/28 09:50:41;;;;;;;8.07;6.70;;;;;;;;;;5106335;28;20302;-34
2024/01/28 09:53:10;;;;;;;10.57;8.17;;;;;;;;;;5100576;28;20196;-34
2024/01/28 09:55:37;;;;;;;11.13;8.57;;;;;;;;;;5085538;28;20247;-38
2024/01/28 09:58:04;;;;;;;9.87;8.00;;;;;;;;;;5100000;28;20196;-33
2024/01/28 10:00:31;;;;;;;11.07;7.73;;;;;;;;;;5096350;28;20274;-31
2024/01/28 10:02:58;;;;;;;10.73;7.33;;;;;;;;;;5092408;28;20268;-30
2024/01/28 10:05:27;;;;;;;10.87;7.93;;;;;;;;;;5100533;28;20208;-35
2024/01/28 10:08:00;;;;;;;14.63;8.50;;;;;;;;;;5100900;28;20602;-33
2024/01/28 10:10:27;;;;;;;10.93;8.33;;;;;;;;;;5080687;28;20236;-36
2024/01/28 10:12:55;;;;;;;9.63;7.70;;;;;;;;;;5089422;28;20204;-33
2024/01/28 10:15:23;;;;;;;11.17;8.13;;;;;;;;;;5108420;28;20231;-34
2024/01/28 10:17:50;;;;;;;10.43;7.93;;;;;;;;;;5100347;28;20195;-31
2024/01/28 10:20:18;;;;;;;12.03;7.37;;;;;;;;;;5078501;28;20235;-33
2024/01/28 10:22:46;;;;;;;11.73;7.77;;;;;;;;;;5110891;28;20227;-32
2024/01/28 10:25:15;;;;;;;9.93;6.70;;;;;;;;;;5078043;28;20220;-32
2024/01/28 10:27:42;;;;;;;10.20;7.73;;;;;;;;;;5094275;28;20285;-36
2024/01/28 10:30:11;;;;;;;9.63;6.90;;;;;;;;;;5102213;28;20224;-38
2024/01/28 10:32:38;;;;;;;9.00;7.27;;;;;;;;;;5090745;28;20215;-32
2024/01/28 10:35:06;;;;;;;10.77;6.43;;;;;;;;;;5083523;28;20220;-34
2024/01/28 10:37:34;;;;;;;8.33;6.20;;;;;;;;;;5083787;28;20205;-34
2024/01/28 10:40:05;;;;;;;7.67;6.10;;;;;;;;;;5085666;28;20221;-35
2024/01/28 10:42:36;;;;;;;10.00;7.10;;;;;;;;;;5095469;28;20333;-31
2024/01/28 10:45:05;;;;;;;8.97;6.63;;;;;;;;;;5100302;28;20259;-35
2024/01/28 10:47:33;;;;;;;9.33;6.57;;;;;;;;;;5096267;28;20757;-35
2024/01/28 10:50:02;;;;;;;7.60;6.30;;;;;;;;;;5079905;28;20225;-33
2024/01/28 10:52:32;;;;;;;9.80;6.90;;;;;;;;;;5094546;28;20232;-31
2024/01/28 10:54:59;;;;;;;8.20;6.33;;;;;;;;;;5079050;28;20230;-38
2024/01/28 10:57:28;;;;;;;7.83;6.83;;;;;;;;;;5093307;28;20203;-33
2024/01/28 10:59:56;;;;;;;8.23;6.53;;;;;;;;;;5103751;28;20223;-31
2024/01/28 11:02:23;;;;;;;6.67;5.80;;;;;;;;;;5085440;28;20294;-34
2024/01/28 11:04:51;;;;;;;7.73;6.20;;;;;;;;;;5091133;28;20285;-31
2024/01/28 11:07:19;;;;;;;8.67;6.17;;;;;;;;;;5090628;28;20224;-34
2024/01/28 11:09:46;;;;;;;7.10;5.63;;;;;;;;;;5089023;28;20306;-28
2024/01/28 11:12:14;;;;;;;7.00;5.97;;;;;;;;;;5086586;28;20212;-38
2024/01/28 11:14:42;;;;;;;7.53;6.20;;;;;;;;;;5093805;28;20291;-32
2024/01/28 11:17:11;;;;;;;5.10;4.23;;;;;;;;;;5094501;28;20196;-34
2024/01/28 11:19:38;;;;;;;7.13;6.10;;;;;;;;;;5088175;28;20229;-32
2024/01/28 11:22:05;;;;;;;6.77;5.27;;;;;;;;;;5091601;28;20222;-34
2024/01/28 11:24:46;;;;;;;7.00;5.60;;;;;;;;;;5082651;28;20209;-37
2024/01/28 11:27:15;;;;;;;7.43;5.27;;;;;;;;;;5086952;28;20414;-32
2024/01/28 11:29:45;;;;;;;7.03;4.73;;;;;;;;;;5109165;28;20228;-30
2024/01/28 11:32:14;;;;;;;7.17;4.17;;;;;;;;;;5089868;28;20204;-33
2024/01/28 11:34:44;;;;;;;7.43;5.27;;;;;;;;;;5091671;28;20200;-36
2024/01/28 11:37:14;;;;;;;5.83;4.43;;;;;;;;;;5093872;28;20220;-36
2024/01/28 11:39:44;;;;;;;4.30;3.90;;;;;;;;;;5088897;28;20225;-32
2024/01/28 11:42:11;;;;;;;4.70;3.87;;;;;;;;;;5090332;28;20203;-33
2024/01/28 11:44:39;;;;;;;4.17;3.27;;;;;;;;;;5111873;28;20212;-34
2024/01/28 11:47:08;;;;;;;3.93;3.50;;;;;;;;;;5098133;28;20525;-32
2024/01/28 11:49:35;;;;;;;3.73;3.30;;;;;;;;;;5083832;28;20236;-35
2024/01/28 11:52:05;;;;;;;3.97;2.83;;;;;;;;;;5085560;28;20212;-33
2024/01/28 11:54:32;;;;;;;3.20;2.90;;;;;;;;;;5077697;28;20205;-33
2024/01/28 11:57:00;;;;;;;4.57;3.63;;;;;;;;;;5084690;28;20201;-34
2024/01/28 11:59:28;;;;;;;3.33;2.90;;;;;;;;;;5097467;28;20238;-42
2024/01/28 12:01:58;;;;;;;3.30;3.00;;;;;;;;;;5089318;28;20201;-34
2024/01/28 12:04:27;;;;;;;3.27;2.60;;;;;;;;;;5092180;28;20227;-33
2024/01/28 12:06:56;;;;;;;3.77;2.90;;;;;;;;;;5098141;28;20200;-31
2024/01/28 12:09:23;;;;;;;3.10;2.80;;;;;;;;;;5082965;28;20247;-33
2024/01/28 12:11:53;;;;;;;2.87;2.57;;;;;;;;;;5084003;28;20200;-37
2024/01/28 12:14:20;;;;;;;3.43;2.53;;;;;;;;;;5103641;28;20260;-38
2024/01/28 12:16:47;;;;;;;2.20;2.03;;;;;;;;;;5098559;28;20200;-29
2024/01/28 12:19:14;;;;;;;3.33;2.43;;;;;;;;;;5084449;28;20212;-32
2024/01/28 12:21:43;;;;;;;2.43;2.23;;;;;;;;;;5079193;28;20208;-36
2024/01/28 12:24:11;;;;;;;2.93;2.20;;;;;;;;;;5088395;28;20204;-34
2024/01/28 12:26:39;;;;;;;2.47;2.27;;;;;;;;;;5085019;28;20209;-32
2024/01/28 12:29:06;;;;;;;2.63;2.20;;;;;;;;;;5092604;28;20256;-32
2024/01/28 12:31:34;;;;;;;2.80;2.43;;;;;;;;;;5083935;28;20197;-32
2024/01/28 12:34:01;;;;;;;4.83;2.70;;;;;;;;;;5088452;28;20204;-32
2024/01/28 12:36:28;;;;;;;3.57;2.90;;;;;;;;;;5092820;28;20215;-35
2024/01/28 12:38:56;;;;;;;3.07;2.60;;;;;;;;;;5100142;28;20196;-34
2024/01/28 12:41:24;;;;;;;3.17;2.60;;;;;;;;;;5082553;28;20233;-36
2024/01/28 12:43:53;;;;;;;2.50;2.27;;;;;;;;;;5098055;28;20209;-35
2024/01/28 12:46:20;;;;;;;2.83;2.27;;;;;;;;;;5100607;28;20204;-35
2024/01/28 12:48:46;;;;;;;3.20;2.90;;;;;;;;;;5098440;28;20220;-32
2024/01/28 12:51:14;;;;;;;4.23;3.10;;;;;;;;;;5088417;28;20224;-36
2024/01/28 12:53:41;;;;;;;3.27;2.63;;;;;;;;;;5096927;28;20257;-31
2024/01/28 12:56:10;;;;;;;5.90;3.67;;;;;;;;;;5077873;28;20204;-34
2024/01/28 12:58:37;;;;;;;3.90;3.40;;;;;;;;;;5086742;28;20205;-35
2024/01/28 13:01:06;;;;;;;4.50;3.77;;;;;;;;;;5103479;28;20270;-33
2024/01/28 13:03:33;;;;;;;3.90;3.13;;;;;;;;;;5093254;28;20204;-32
2024/01/28 13:06:00;;;;;;;4.67;3.17;;;;;;;;;;5093011;28;20211;-30
2024/01/28 13:08:27;;;;;;;3.00;2.50;;;;;;;;;;5097770;28;20222;-36
2024/01/28 13:10:55;;;;;;;2.97;2.40;;;;;;;;;;5084926;28;20228;-34
2024/01/28 13:13:24;;;;;;;2.33;2.13;;;;;;;;;;5102616;28;20204;-31
2024/01/28 13:15:51;;;;;;;2.80;2.30;;;;;;;;;;5094564;28;20208;-36
2024/01/28 13:18:29;;;;;;;3.10;2.20;;;;;;;;;;5087598;28;20201;-34
2024/01/28 13:20:56;;;;;;;2.17;1.80;;;;;;;;;;5092111;28;20573;-36
2024/01/28 13:23:23;;;;;;;2.17;1.87;;;;;;;;;;5098531;28;20211;-33
2024/01/28 13:26:02;;;;;;;2.83;1.90;;;;;;;;;;5091249;28;20223;-32
2024/01/28 13:28:31;;;;;;;1.80;1.70;;;;;;;;;;5092625;28;20215;-35
2024/01/28 13:30:58;;;;;;;2.53;2.00;;;;;;;;;;5096728;28;20219;-28
2024/01/28 13:33:26;;;;;;;2.20;1.77;;;;;;;;;;5087472;28;20232;-32
2024/01/28 13:35:53;;;;;;;3.03;1.60;;;;;;;;;;5084380;28;20211;-32
2024/01/28 13:38:20;;;;;;;1.83;1.73;;;;;;;;;;5096033;28;20207;-31
2024/01/28 13:40:47;;;;;;;1.97;1.67;;;;;;;;;;5078927;28;20227;-33
2024/01/28 13:43:14;;;;;;;2.73;2.40;;;;;;;;;;5089191;28;20215;-36
2024/01/28 13:45:43;;;;;;;1.73;1.63;;;;;;;;;;5097194;28;20205;-32
2024/01/28 13:48:10;;;;;;;2.70;1.60;;;;;;;;;;5090231;28;20231;-30
2024/01/28 13:50:37;;;;;;;1.83;1.70;;;;;;;;;;5088250;28;20265;-32
2024/01/28 13:53:08;;;;;;;2.13;1.60;;;;;;;;;;5095625;28;20196;-32
2024/01/28 13:55:35;;;;;;;1.63;1.53;;;;;;;;;;5084935;28;20193;-30
2024/01/28 13:58:02;;;;;;;1.97;1.70;;;;;;;;;;5104132;28;20197;-33
2024/01/28 14:00:29;;;;;;;1.40;1.30;;;;;;;;;;5093430;28;20328;-34
2024/01/28 14:02:58;;;;;;;1.67;1.57;;;;;;;;;;5088139;28;20208;-34
2024/01/28 14:05:25;;;;;;;2.53;1.60;;;;;;;;;;5097887;28;20250;-33
2024/01/28 14:07:52;;;;;;;2.53;1.50;;;;;;;;;;5084475;28;20232;-32
2024/01/28 14:10:19;;;;;;;2.00;1.80;;;;;;;;;;5078422;28;20221;-30
2024/01/28 14:12:46;;;;;;;2.07;1.77;;;;;;;;;;5092437;28;20204;-31
2024/01/28 14:15:23;;;;;;;2.33;1.60;;;;;;;;;;5097610;28;20199;-35
2024/01/28 14:17:51;;;;;;;1.97;1.50;;;;;;;;;;5096594;28;20204;-34
2024/01/28 14:20:19;;;;;;;1.70;1.60;;;;;;;;;;5086359;28;20228;-31
2024/01/28 14:22:46;;;;;;;2.10;1.90;;;;;;;;;;5093516;28;20200;-32
2024/01/28 14:25:14;;;;;;;1.87;1.77;;;;;;;;;;5085538;28;20227;-32
2024/01/28 14:27:42;;;;;;;3.03;1.40;;;;;;;;;;5096127;28;20232;-29
2024/01/28 14:30:09;;;;;;;2.63;1.70;;;;;;;;;;5093423;28;20221;-31
2024/01/28 14:32:36;;;;;;;3.63;1.70;;;;;;;;;;5090779;28;20272;-33
2024/01/28 14:35:03;;;;;;;1.50;1.40;;;;;;;;;;5095498;28;20243;-33
2024/01/28 14:37:32;;;;;;;1.60;1.50;;;;;;;;;;5092252;28;20212;-30
2024/01/28 14:39:59;;;;;;;1.60;1.50;;;;;;;;;;5085619;28;20581;-34
2024/01/28 14:42:26;;;;;;;1.80;1.60;;;;;;;;;;5090084;28;20196;-32
2024/01/28 14:44:54;;;;;;;1.97;1.57;;;;;;;;;;5093464;28;20212;-34
2024/01/28 14:47:21;;;;;;;1.43;1.27;;;;;;;;;;5097738;28;20257;-28